sensor_id;sensor_type;location;lat;lon;timestamp;temperature;humidity
76211;DHT22;65003;49.518;11.280;2024-03-06T00:01:54;9.10;99.90
76211;DHT22;65003;49.518;11.280;2024-03-06T00:04:20;9.00;99.90
76211;DHT22;65003;49.518;11.280;2024-03-06T00:06:47;9.00;99.90
76211;DHT22;65003;49.518;11.280;2024-03-06T00:09:13;9.00;99.90
76211;DHT22;65003;49.518;11.280;2024-03-06T00:11:40;9.00;99.90
76211;DHT22;65003;49.518;11.280;2024-03-06T00:14:06;9.00;99.90
76211;DHT22;65003;49.518;11.280;2024-03-06T00:16:33;9.00;99.90
76211;DHT22;65003;49.518;11.280;2024-03-06T00:19:00;9.00;99.90
76211;DHT22;65003;49.518;11.280;2024-03-06T00:21:26;9.10;99.90
76211;DHT22;65003;49.518;11.280;2024-03-06T00:23:53;8.90;99.90
76211;DHT22;65003;49.518;11.280;2024-03-06T00:26:19;9.10;99.90
76211;DHT22;65003;49.518;11.280;2024-03-06T00:28:46;9.10;99.90
76211;DHT22;65003;49.518;11.280;2024-03-06T00:31:13;9.20;99.90
76211;DHT22;65003;49.518;11.280;2024-03-06T00:33:39;9.20;99.90
76211;DHT22;65003;49.518;11.280;2024-03-06T00:36:06;9.30;99.90
76211;DHT22;65003;49.518;11.280;2024-03-06T00:38:33;9.50;99.90
76211;DHT22;65003;49.518;11.280;2024-03-06T00:40:59;9.50;99.90
76211;DHT22;65003;49.518;11.280;2024-03-06T00:43:26;9.50;99.90
76211;DHT22;65003;49.518;11.280;2024-03-06T00:45:53;9.40;99.90
76211;DHT22;65003;49.518;11.280;2024-03-06T00:48:19;9.50;99.90
76211;DHT22;65003;49.518;11.280;2024-03-06T00:50:46;9.50;99.90
76211;DHT22;65003;49.518;11.280;2024-03-06T00:53:13;9.40;99.90
76211;DHT22;65003;49.518;11.280;2024-03-06T00:55:39;9.50;99.90
76211;DHT22;65003;49.518;11.280;2024-03-06T00:58:06;9.30;99.90
76211;DHT22;65003;49.518;11.280;2024-03-06T01:00:33;9.30;99.90
76211;DHT22;65003;49.518;11.280;2024-03-06T01:03:00;9.30;99.90
76211;DHT22;65003;49.518;11.280;2024-03-06T01:05:26;9.40;99.90
76211;DHT22;65003;49.518;11.280;2024-03-06T01:07:53;9.60;99.90
76211;DHT22;65003;49.518;11.280;2024-03-06T01:10:19;9.20;99.90
76211;DHT22;65003;49.518;11.280;2024-03-06T01:12:46;8.80;99.90
76211;DHT22;65003;49.518;11.280;2024-03-06T01:15:13;8.90;99.90
76211;DHT22;65003;49.518;11.280;2024-03-06T01:17:39;8.90;99.90
76211;DHT22;65003;49.518;11.280;2024-03-06T01:20:06;8.70;99.90
76211;DHT22;65003;49.518;11.280;2024-03-06T01:22:33;8.90;99.90
76211;DHT22;65003;49.518;11.280;2024-03-06T01:25:00;9.00;99.90
76211;DHT22;65003;49.518;11.280;2024-03-06T01:27:27;8.90;99.90
76211;DHT22;65003;49.518;11.280;2024-03-06T01:29:53;8.80;99.90
76211;DHT22;65003;49.518;11.280;2024-03-06T01:32:19;8.80;99.90
76211;DHT22;65003;49.518;11.280;2024-03-06T01:34:46;8.60;99.90
76211;DHT22;65003;49.518;11.280;2024-03-06T01:37:13;8.80;99.90
76211;DHT22;65003;49.518;11.280;2024-03-06T01:39:39;8.80;99.90
76211;DHT22;65003;49.518;11.280;2024-03-06T01:42:06;8.70;99.90
76211;DHT22;65003;49.518;11.280;2024-03-06T01:44:32;8.80;99.90
76211;DHT22;65003;49.518;11.280;2024-03-06T01:46:59;8.80;99.90
76211;DHT22;65003;49.518;11.280;2024-03-06T01:49:26;8.90;99.90
76211;DHT22;65003;49.518;11.280;2024-03-06T01:51:54;8.90;99.90
76211;DHT22;65003;49.518;11.280;2024-03-06T01:54:19;8.90;99.90
76211;DHT22;65003;49.518;11.280;2024-03-06T01:56:46;8.90;99.90
76211;DHT22;65003;49.518;11.280;2024-03-06T01:59:13;8.80;99.90
76211;DHT22;65003;49.518;11.280;2024-03-06T02:01:39;8.80;99.90
76211;DHT22;65003;49.518;11.280;2024-03-06T02:04:07;8.70;99.90
76211;DHT22;65003;49.518;11.280;2024-03-06T02:06:33;8.80;99.90
76211;DHT22;65003;49.518;11.280;2024-03-06T02:09:00;8.90;99.90
76211;DHT22;65003;49.518;11.280;2024-03-06T02:11:26;8.90;99.90
76211;DHT22;65003;49.518;11.280;2024-03-06T02:13:53;8.90;99.90
76211;DHT22;65003;49.518;11.280;2024-03-06T02:16:19;8.90;99.90
76211;DHT22;65003;49.518;11.280;2024-03-06T02:18:53;8.90;99.90
76211;DHT22;65003;49.518;11.280;2024-03-06T02:21:21;8.90;99.90
76211;DHT22;65003;49.518;11.280;2024-03-06T02:23:47;9.10;99.90
76211;DHT22;65003;49.518;11.280;2024-03-06T02:26:13;9.10;99.90
76211;DHT22;65003;49.518;11.280;2024-03-06T02:28:46;9.00;99.90
76211;DHT22;65003;49.518;11.280;2024-03-06T02:31:07;9.30;99.90
76211;DHT22;65003;49.518;11.280;2024-03-06T02:33:33;9.20;99.90
76211;DHT22;65003;49.518;11.280;2024-03-06T02:36:00;9.10;99.90
76211;DHT22;65003;49.518;11.280;2024-03-06T02:38:26;8.90;99.90
76211;DHT22;65003;49.518;11.280;2024-03-06T02:40:53;8.90;99.90
76211;DHT22;65003;49.518;11.280;2024-03-06T02:43:19;8.90;99.90
76211;DHT22;65003;49.518;11.280;2024-03-06T02:45:46;8.90;99.90
76211;DHT22;65003;49.518;11.280;2024-03-06T02:48:13;9.00;99.90
76211;DHT22;65003;49.518;11.280;2024-03-06T02:50:39;9.00;99.90
76211;DHT22;65003;49.518;11.280;2024-03-06T02:53:06;8.90;99.90
76211;DHT22;65003;49.518;11.280;2024-03-06T02:55:32;8.90;99.90
76211;DHT22;65003;49.518;11.280;2024-03-06T02:58:02;8.90;99.90
76211;DHT22;65003;49.518;11.280;2024-03-06T03:00:28;8.90;99.90
76211;DHT22;65003;49.518;11.280;2024-03-06T03:02:55;8.80;99.90
76211;DHT22;65003;49.518;11.280;2024-03-06T03:05:22;8.80;99.90
76211;DHT22;65003;49.518;11.280;2024-03-06T03:07:48;8.70;99.90
76211;DHT22;65003;49.518;11.280;2024-03-06T03:10:15;8.70;99.90
76211;DHT22;65003;49.518;11.280;2024-03-06T03:12:41;8.60;99.90
76211;DHT22;65003;49.518;11.280;2024-03-06T03:15:08;8.80;99.90
76211;DHT22;65003;49.518;11.280;2024-03-06T03:17:35;8.90;99.90
76211;DHT22;65003;49.518;11.280;2024-03-06T03:20:02;8.90;99.90
76211;DHT22;65003;49.518;11.280;2024-03-06T03:22:31;9.20;99.90
76211;DHT22;65003;49.518;11.280;2024-03-06T03:24:57;9.10;99.90
76211;DHT22;65003;49.518;11.280;2024-03-06T03:27:24;9.20;99.90
76211;DHT22;65003;49.518;11.280;2024-03-06T03:29:51;9.10;99.90
76211;DHT22;65003;49.518;11.280;2024-03-06T03:32:17;9.10;99.90
76211;DHT22;65003;49.518;11.280;2024-03-06T03:34:44;9.20;99.90
76211;DHT22;65003;49.518;11.280;2024-03-06T03:37:12;9.00;99.90
76211;DHT22;65003;49.518;11.280;2024-03-06T03:39:37;9.00;99.90
76211;DHT22;65003;49.518;11.280;2024-03-06T03:42:03;8.90;99.90
76211;DHT22;65003;49.518;11.280;2024-03-06T03:44:30;9.00;99.90
76211;DHT22;65003;49.518;11.280;2024-03-06T03:46:57;9.00;99.90
76211;DHT22;65003;49.518;11.280;2024-03-06T03:49:23;9.00;99.90
76211;DHT22;65003;49.518;11.280;2024-03-06T03:51:50;9.00;99.90
76211;DHT22;65003;49.518;11.280;2024-03-06T03:54:16;8.90;99.90
76211;DHT22;65003;49.518;11.280;2024-03-06T03:56:43;8.90;99.90
76211;DHT22;65003;49.518;11.280;2024-03-06T03:59:10;8.50;99.90
76211;DHT22;65003;49.518;11.280;2024-03-06T04:01:36;8.90;99.90
76211;DHT22;65003;49.518;11.280;2024-03-06T04:04:03;8.90;99.90
76211;DHT22;65003;49.518;11.280;2024-03-06T04:06:29;9.00;99.90
76211;DHT22;65003;49.518;11.280;2024-03-06T04:08:56;8.70;99.90
76211;DHT22;65003;49.518;11.280;2024-03-06T04:11:23;8.90;99.90
76211;DHT22;65003;49.518;11.280;2024-03-06T04:13:49;8.90;99.90
76211;DHT22;65003;49.518;11.280;2024-03-06T04:16:17;8.90;99.90
76211;DHT22;65003;49.518;11.280;2024-03-06T04:18:44;8.90;99.90
76211;DHT22;65003;49.518;11.280;2024-03-06T04:21:10;8.90;99.90
76211;DHT22;65003;49.518;11.280;2024-03-06T04:23:37;8.70;99.90
76211;DHT22;65003;49.518;11.280;2024-03-06T04:26:03;8.80;99.90
76211;DHT22;65003;49.518;11.280;2024-03-06T04:28:30;8.80;99.90
76211;DHT22;65003;49.518;11.280;2024-03-06T04:30:57;8.60;99.90
76211;DHT22;65003;49.518;11.280;2024-03-06T04:33:23;9.00;99.90
76211;DHT22;65003;49.518;11.280;2024-03-06T04:35:50;9.00;99.90
76211;DHT22;65003;49.518;11.280;2024-03-06T04:38:16;8.80;99.90
76211;DHT22;65003;49.518;11.280;2024-03-06T04:40:43;8.90;99.90
76211;DHT22;65003;49.518;11.280;2024-03-06T04:43:10;8.80;99.90
76211;DHT22;65003;49.518;11.280;2024-03-06T04:45:36;8.90;99.90
76211;DHT22;65003;49.518;11.280;2024-03-06T04:48:03;8.60;99.90
76211;DHT22;65003;49.518;11.280;2024-03-06T04:50:30;8.70;99.90
76211;DHT22;65003;49.518;11.280;2024-03-06T04:52:56;8.70;99.90
76211;DHT22;65003;49.518;11.280;2024-03-06T04:55:23;8.60;99.90
76211;DHT22;65003;49.518;11.280;2024-03-06T04:57:49;8.50;99.90
76211;DHT22;65003;49.518;11.280;2024-03-06T05:00:16;8.60;99.90
76211;DHT22;65003;49.518;11.280;2024-03-06T05:02:43;8.50;99.90
76211;DHT22;65003;49.518;11.280;2024-03-06T05:05:09;8.60;99.90
76211;DHT22;65003;49.518;11.280;2024-03-06T05:07:36;8.60;99.90
76211;DHT22;65003;49.518;11.280;2024-03-06T05:10:03;8.60;99.90
76211;DHT22;65003;49.518;11.280;2024-03-06T05:12:29;8.50;99.90
76211;DHT22;65003;49.518;11.280;2024-03-06T05:14:56;8.50;99.90
76211;DHT22;65003;49.518;11.280;2024-03-06T05:17:22;8.50;99.90
76211;DHT22;65003;49.518;11.280;2024-03-06T05:19:49;8.50;99.90
76211;DHT22;65003;49.518;11.280;2024-03-06T05:22:16;8.90;99.90
76211;DHT22;65003;49.518;11.280;2024-03-06T05:24:42;8.50;99.90
76211;DHT22;65003;49.518;11.280;2024-03-06T05:27:09;8.40;99.90
76211;DHT22;65003;49.518;11.280;2024-03-06T05:29:35;8.40;99.90
76211;DHT22;65003;49.518;11.280;2024-03-06T05:32:02;8.40;99.90
76211;DHT22;65003;49.518;11.280;2024-03-06T05:34:29;8.50;99.90
76211;DHT22;65003;49.518;11.280;2024-03-06T05:37:01;8.60;99.90
76211;DHT22;65003;49.518;11.280;2024-03-06T05:39:28;8.70;99.90
76211;DHT22;65003;49.518;11.280;2024-03-06T05:41:55;8.90;99.90
76211;DHT22;65003;49.518;11.280;2024-03-06T05:44:21;8.90;99.90
76211;DHT22;65003;49.518;11.280;2024-03-06T05:46:47;8.90;99.90
76211;DHT22;65003;49.518;11.280;2024-03-06T05:49:14;8.20;99.90
76211;DHT22;65003;49.518;11.280;2024-03-06T05:51:41;8.60;99.90
76211;DHT22;65003;49.518;11.280;2024-03-06T05:54:07;8.80;99.90
76211;DHT22;65003;49.518;11.280;2024-03-06T05:56:35;8.90;99.90
76211;DHT22;65003;49.518;11.280;2024-03-06T05:59:02;9.20;99.90
76211;DHT22;65003;49.518;11.280;2024-03-06T06:01:29;8.90;99.90
76211;DHT22;65003;49.518;11.280;2024-03-06T06:03:56;9.00;99.90
76211;DHT22;65003;49.518;11.280;2024-03-06T06:06:22;9.20;99.90
76211;DHT22;65003;49.518;11.280;2024-03-06T06:08:49;9.20;99.90
76211;DHT22;65003;49.518;11.280;2024-03-06T06:11:15;9.40;99.90
76211;DHT22;65003;49.518;11.280;2024-03-06T06:13:42;9.40;99.90
76211;DHT22;65003;49.518;11.280;2024-03-06T06:16:09;9.40;99.90
76211;DHT22;65003;49.518;11.280;2024-03-06T06:18:35;9.40;99.90
76211;DHT22;65003;49.518;11.280;2024-03-06T06:21:02;9.60;99.90
76211;DHT22;65003;49.518;11.280;2024-03-06T06:23:28;9.70;99.90
76211;DHT22;65003;49.518;11.280;2024-03-06T06:25:55;9.70;99.90
76211;DHT22;65003;49.518;11.280;2024-03-06T06:28:22;9.70;99.90
76211;DHT22;65003;49.518;11.280;2024-03-06T06:30:48;9.90;99.90
76211;DHT22;65003;49.518;11.280;2024-03-06T06:33:15;9.60;99.90
76211;DHT22;65003;49.518;11.280;2024-03-06T06:35:41;9.70;99.90
76211;DHT22;65003;49.518;11.280;2024-03-06T06:38:08;9.50;99.90
76211;DHT22;65003;49.518;11.280;2024-03-06T06:40:35;9.20;99.90
76211;DHT22;65003;49.518;11.280;2024-03-06T06:43:01;9.40;99.90
76211;DHT22;65003;49.518;11.280;2024-03-06T06:45:28;9.50;99.90
76211;DHT22;65003;49.518;11.280;2024-03-06T06:47:54;9.50;99.90
76211;DHT22;65003;49.518;11.280;2024-03-06T06:50:21;9.60;99.90
76211;DHT22;65003;49.518;11.280;2024-03-06T06:52:48;9.70;99.90
76211;DHT22;65003;49.518;11.280;2024-03-06T06:55:14;9.70;99.90
76211;DHT22;65003;49.518;11.280;2024-03-06T06:57:41;9.70;99.90
76211;DHT22;65003;49.518;11.280;2024-03-06T07:00:07;10.00;99.90
76211;DHT22;65003;49.518;11.280;2024-03-06T07:02:38;10.10;99.90
76211;DHT22;65003;49.518;11.280;2024-03-06T07:05:05;9.80;99.90
76211;DHT22;65003;49.518;11.280;2024-03-06T07:07:32;9.50;99.90
76211;DHT22;65003;49.518;11.280;2024-03-06T07:09:59;9.40;99.90
76211;DHT22;65003;49.518;11.280;2024-03-06T07:12:25;9.40;99.90
76211;DHT22;65003;49.518;11.280;2024-03-06T07:14:52;9.00;99.90
76211;DHT22;65003;49.518;11.280;2024-03-06T07:17:18;8.90;99.90
76211;DHT22;65003;49.518;11.280;2024-03-06T07:19:45;8.80;99.90
76211;DHT22;65003;49.518;11.280;2024-03-06T07:22:12;8.60;99.90
76211;DHT22;65003;49.518;11.280;2024-03-06T07:24:38;8.90;99.90
76211;DHT22;65003;49.518;11.280;2024-03-06T07:27:05;8.90;99.90
76211;DHT22;65003;49.518;11.280;2024-03-06T07:29:31;8.90;99.90
76211;DHT22;65003;49.518;11.280;2024-03-06T07:31:58;8.90;99.90
76211;DHT22;65003;49.518;11.280;2024-03-06T07:34:24;8.90;99.90
76211;DHT22;65003;49.518;11.280;2024-03-06T07:36:51;8.70;99.90
76211;DHT22;65003;49.518;11.280;2024-03-06T07:39:19;8.70;99.90
76211;DHT22;65003;49.518;11.280;2024-03-06T07:41:45;8.90;99.90
76211;DHT22;65003;49.518;11.280;2024-03-06T07:44:12;8.90;99.90
76211;DHT22;65003;49.518;11.280;2024-03-06T07:46:38;9.20;99.90
76211;DHT22;65003;49.518;11.280;2024-03-06T07:49:05;9.30;99.90
76211;DHT22;65003;49.518;11.280;2024-03-06T07:51:32;9.20;99.90
76211;DHT22;65003;49.518;11.280;2024-03-06T07:53:58;9.50;99.90
76211;DHT22;65003;49.518;11.280;2024-03-06T07:56:25;9.50;99.90
76211;DHT22;65003;49.518;11.280;2024-03-06T07:58:51;9.60;99.90
76211;DHT22;65003;49.518;11.280;2024-03-06T08:01:18;9.60;99.90
76211;DHT22;65003;49.518;11.280;2024-03-06T08:03:44;9.30;99.90
76211;DHT22;65003;49.518;11.280;2024-03-06T08:06:11;9.40;99.90
76211;DHT22;65003;49.518;11.280;2024-03-06T08:08:39;10.10;99.90
76211;DHT22;65003;49.518;11.280;2024-03-06T08:11:04;10.40;99.90
76211;DHT22;65003;49.518;11.280;2024-03-06T08:13:31;10.50;99.90
76211;DHT22;65003;49.518;11.280;2024-03-06T08:15:57;10.50;99.90
76211;DHT22;65003;49.518;11.280;2024-03-06T08:18:24;10.50;99.90
76211;DHT22;65003;49.518;11.280;2024-03-06T08:20:51;10.60;99.90
76211;DHT22;65003;49.518;11.280;2024-03-06T08:23:17;10.80;99.90
76211;DHT22;65003;49.518;11.280;2024-03-06T08:25:44;11.20;99.90
76211;DHT22;65003;49.518;11.280;2024-03-06T08:28:10;11.60;99.90
76211;DHT22;65003;49.518;11.280;2024-03-06T08:30:37;11.80;99.90
76211;DHT22;65003;49.518;11.280;2024-03-06T08:33:04;11.70;99.90
76211;DHT22;65003;49.518;11.280;2024-03-06T08:35:30;11.70;99.90
76211;DHT22;65003;49.518;11.280;2024-03-06T08:37:57;11.70;99.90
76211;DHT22;65003;49.518;11.280;2024-03-06T08:40:23;11.30;99.90
76211;DHT22;65003;49.518;11.280;2024-03-06T08:42:50;11.90;99.90
76211;DHT22;65003;49.518;11.280;2024-03-06T08:45:17;11.10;99.90
76211;DHT22;65003;49.518;11.280;2024-03-06T08:47:44;10.90;99.90
76211;DHT22;65003;49.518;11.280;2024-03-06T08:50:10;10.80;99.90
76211;DHT22;65003;49.518;11.280;2024-03-06T08:52:37;11.00;99.90
76211;DHT22;65003;49.518;11.280;2024-03-06T08:55:03;10.70;99.90
76211;DHT22;65003;49.518;11.280;2024-03-06T08:57:31;10.80;99.90
76211;DHT22;65003;49.518;11.280;2024-03-06T08:59:58;10.60;99.90
76211;DHT22;65003;49.518;11.280;2024-03-06T09:02:24;10.70;99.90
76211;DHT22;65003;49.518;11.280;2024-03-06T09:04:51;10.90;99.90
76211;DHT22;65003;49.518;11.280;2024-03-06T09:07:17;11.50;99.90
76211;DHT22;65003;49.518;11.280;2024-03-06T09:09:44;11.60;99.90
76211;DHT22;65003;49.518;11.280;2024-03-06T09:12:10;12.30;99.90
76211;DHT22;65003;49.518;11.280;2024-03-06T09:14:37;11.60;99.90
76211;DHT22;65003;49.518;11.280;2024-03-06T09:17:04;11.90;99.90
76211;DHT22;65003;49.518;11.280;2024-03-06T09:19:31;11.80;99.90
76211;DHT22;65003;49.518;11.280;2024-03-06T09:21:57;11.70;99.90
76211;DHT22;65003;49.518;11.280;2024-03-06T09:24:24;11.50;99.90
76211;DHT22;65003;49.518;11.280;2024-03-06T09:26:50;11.50;99.90
76211;DHT22;65003;49.518;11.280;2024-03-06T09:29:17;11.30;99.90
76211;DHT22;65003;49.518;11.280;2024-03-06T09:31:43;11.10;99.90
76211;DHT22;65003;49.518;11.280;2024-03-06T09:34:10;11.20;99.90
76211;DHT22;65003;49.518;11.280;2024-03-06T09:36:36;11.00;99.90
76211;DHT22;65003;49.518;11.280;2024-03-06T09:39:03;11.20;99.90
76211;DHT22;65003;49.518;11.280;2024-03-06T09:41:30;11.40;99.90
76211;DHT22;65003;49.518;11.280;2024-03-06T09:43:59;11.40;99.90
76211;DHT22;65003;49.518;11.280;2024-03-06T09:46:24;11.40;99.90
76211;DHT22;65003;49.518;11.280;2024-03-06T09:48:50;11.20;99.90
76211;DHT22;65003;49.518;11.280;2024-03-06T09:51:17;11.30;99.90
76211;DHT22;65003;49.518;11.280;2024-03-06T09:53:43;11.60;99.90
76211;DHT22;65003;49.518;11.280;2024-03-06T09:56:10;11.50;99.90
76211;DHT22;65003;49.518;11.280;2024-03-06T09:58:37;11.20;99.90
76211;DHT22;65003;49.518;11.280;2024-03-06T10:01:03;11.30;99.90
76211;DHT22;65003;49.518;11.280;2024-03-06T10:03:30;11.20;99.90
76211;DHT22;65003;49.518;11.280;2024-03-06T10:05:56;11.50;99.90
76211;DHT22;65003;49.518;11.280;2024-03-06T10:08:23;12.00;99.90
76211;DHT22;65003;49.518;11.280;2024-03-06T10:10:50;12.60;99.90
76211;DHT22;65003;49.518;11.280;2024-03-06T10:13:16;12.70;99.90
76211;DHT22;65003;49.518;11.280;2024-03-06T10:16:01;11.90;99.90
76211;DHT22;65003;49.518;11.280;2024-03-06T10:18:28;12.40;99.90
76211;DHT22;65003;49.518;11.280;2024-03-06T10:20:54;12.40;99.90
76211;DHT22;65003;49.518;11.280;2024-03-06T10:23:20;12.50;99.90
76211;DHT22;65003;49.518;11.280;2024-03-06T10:25:47;12.40;99.90
76211;DHT22;65003;49.518;11.280;2024-03-06T10:28:13;12.40;99.90
76211;DHT22;65003;49.518;11.280;2024-03-06T10:30:41;12.40;99.90
76211;DHT22;65003;49.518;11.280;2024-03-06T10:33:09;12.30;99.90
76211;DHT22;65003;49.518;11.280;2024-03-06T10:35:35;12.10;99.90
76211;DHT22;65003;49.518;11.280;2024-03-06T10:38:03;11.90;99.90
76211;DHT22;65003;49.518;11.280;2024-03-06T10:40:31;11.90;99.90
76211;DHT22;65003;49.518;11.280;2024-03-06T10:42:58;12.00;99.90
76211;DHT22;65003;49.518;11.280;2024-03-06T10:45:26;12.10;99.90
76211;DHT22;65003;49.518;11.280;2024-03-06T10:47:50;11.80;99.90
76211;DHT22;65003;49.518;11.280;2024-03-06T10:50:17;11.90;99.90
76211;DHT22;65003;49.518;11.280;2024-03-06T10:52:44;11.30;99.90
76211;DHT22;65003;49.518;11.280;2024-03-06T10:55:11;11.30;99.90
76211;DHT22;65003;49.518;11.280;2024-03-06T10:57:37;11.20;99.90
76211;DHT22;65003;49.518;11.280;2024-03-06T11:00:04;11.20;99.90
76211;DHT22;65003;49.518;11.280;2024-03-06T11:02:31;11.20;99.90
76211;DHT22;65003;49.518;11.280;2024-03-06T11:04:57;11.20;99.90
76211;DHT22;65003;49.518;11.280;2024-03-06T11:07:24;11.10;99.90
76211;DHT22;65003;49.518;11.280;2024-03-06T11:09:51;11.00;99.90
76211;DHT22;65003;49.518;11.280;2024-03-06T11:12:38;11.00;99.90
76211;DHT22;65003;49.518;11.280;2024-03-06T11:15:10;11.00;99.90
76211;DHT22;65003;49.518;11.280;2024-03-06T11:17:36;10.80;99.90
76211;DHT22;65003;49.518;11.280;2024-03-06T11:20:18;10.80;99.90
76211;DHT22;65003;49.518;11.280;2024-03-06T11:23:03;10.90;99.90
76211;DHT22;65003;49.518;11.280;2024-03-06T11:26:16;10.70;99.90
76211;DHT22;65003;49.518;11.280;2024-03-06T11:28:26;10.80;99.90
76211;DHT22;65003;49.518;11.280;2024-03-06T11:30:56;11.10;99.90
76211;DHT22;65003;49.518;11.280;2024-03-06T11:33:22;10.80;99.90
76211;DHT22;65003;49.518;11.280;2024-03-06T11:38:28;10.50;99.90
76211;DHT22;65003;49.518;11.280;2024-03-06T11:40:53;10.40;99.90
76211;DHT22;65003;49.518;11.280;2024-03-06T11:43:22;10.30;99.90
76211;DHT22;65003;49.518;11.280;2024-03-06T11:45:48;10.50;99.90
76211;DHT22;65003;49.518;11.280;2024-03-06T11:48:15;10.50;99.90
76211;DHT22;65003;49.518;11.280;2024-03-06T11:50:42;10.70;99.90
76211;DHT22;65003;49.518;11.280;2024-03-06T11:53:09;10.70;99.90
76211;DHT22;65003;49.518;11.280;2024-03-06T11:55:35;11.00;99.90
76211;DHT22;65003;49.518;11.280;2024-03-06T11:58:02;11.10;99.90
76211;DHT22;65003;49.518;11.280;2024-03-06T12:00:30;11.10;99.90
76211;DHT22;65003;49.518;11.280;2024-03-06T12:02:56;11.40;99.90
76211;DHT22;65003;49.518;11.280;2024-03-06T12:05:23;11.20;99.90
76211;DHT22;65003;49.518;11.280;2024-03-06T12:07:49;11.40;99.90
76211;DHT22;65003;49.518;11.280;2024-03-06T12:10:16;11.40;99.90
76211;DHT22;65003;49.518;11.280;2024-03-06T12:12:43;11.40;99.90
76211;DHT22;65003;49.518;11.280;2024-03-06T12:15:09;11.20;99.90
76211;DHT22;65003;49.518;11.280;2024-03-06T12:17:44;11.10;99.90
76211;DHT22;65003;49.518;11.280;2024-03-06T12:20:10;11.20;99.90
76211;DHT22;65003;49.518;11.280;2024-03-06T12:22:37;11.10;99.90
76211;DHT22;65003;49.518;11.280;2024-03-06T12:25:04;11.30;99.90
76211;DHT22;65003;49.518;11.280;2024-03-06T12:27:30;11.40;99.90
76211;DHT22;65003;49.518;11.280;2024-03-06T12:29:57;11.50;99.90
76211;DHT22;65003;49.518;11.280;2024-03-06T12:32:24;11.70;99.90
76211;DHT22;65003;49.518;11.280;2024-03-06T12:34:57;11.60;99.90
76211;DHT22;65003;49.518;11.280;2024-03-06T12:37:28;11.70;99.90
76211;DHT22;65003;49.518;11.280;2024-03-06T12:39:51;11.80;99.90
76211;DHT22;65003;49.518;11.280;2024-03-06T12:42:17;11.80;99.90
76211;DHT22;65003;49.518;11.280;2024-03-06T12:44:44;11.80;99.90
76211;DHT22;65003;49.518;11.280;2024-03-06T12:47:10;12.00;99.90
76211;DHT22;65003;49.518;11.280;2024-03-06T12:49:37;12.00;99.90
76211;DHT22;65003;49.518;11.280;2024-03-06T12:52:04;12.10;99.90
76211;DHT22;65003;49.518;11.280;2024-03-06T12:54:30;12.30;99.90
76211;DHT22;65003;49.518;11.280;2024-03-06T12:56:57;12.50;99.90
76211;DHT22;65003;49.518;11.280;2024-03-06T12:59:23;12.60;99.90
76211;DHT22;65003;49.518;11.280;2024-03-06T13:01:50;12.90;99.90
76211;DHT22;65003;49.518;11.280;2024-03-06T13:04:17;12.90;99.90
76211;DHT22;65003;49.518;11.280;2024-03-06T13:06:43;12.60;99.90
76211;DHT22;65003;49.518;11.280;2024-03-06T13:09:10;12.70;99.90
76211;DHT22;65003;49.518;11.280;2024-03-06T13:11:36;12.20;99.90
76211;DHT22;65003;49.518;11.280;2024-03-06T13:14:03;12.50;99.90
76211;DHT22;65003;49.518;11.280;2024-03-06T13:16:30;12.30;99.90
76211;DHT22;65003;49.518;11.280;2024-03-06T13:18:56;12.40;99.90
76211;DHT22;65003;49.518;11.280;2024-03-06T13:21:23;12.60;99.90
76211;DHT22;65003;49.518;11.280;2024-03-06T13:23:49;12.80;99.90
76211;DHT22;65003;49.518;11.280;2024-03-06T13:26:16;13.00;99.90
76211;DHT22;65003;49.518;11.280;2024-03-06T13:28:42;12.90;99.90
76211;DHT22;65003;49.518;11.280;2024-03-06T13:31:09;13.10;99.90
76211;DHT22;65003;49.518;11.280;2024-03-06T13:33:36;13.50;99.90
76211;DHT22;65003;49.518;11.280;2024-03-06T13:36:02;13.40;99.90
76211;DHT22;65003;49.518;11.280;2024-03-06T13:38:29;13.50;99.90
76211;DHT22;65003;49.518;11.280;2024-03-06T13:40:56;13.30;99.90
76211;DHT22;65003;49.518;11.280;2024-03-06T13:43:22;13.40;99.90
76211;DHT22;65003;49.518;11.280;2024-03-06T13:45:50;13.20;99.90
76211;DHT22;65003;49.518;11.280;2024-03-06T13:48:16;13.30;99.90
76211;DHT22;65003;49.518;11.280;2024-03-06T13:50:43;13.20;99.90
76211;DHT22;65003;49.518;11.280;2024-03-06T13:53:10;13.20;99.90
76211;DHT22;65003;49.518;11.280;2024-03-06T13:55:36;13.20;99.90
76211;DHT22;65003;49.518;11.280;2024-03-06T13:58:03;13.10;99.90
76211;DHT22;65003;49.518;11.280;2024-03-06T14:00:29;13.20;99.90
76211;DHT22;65003;49.518;11.280;2024-03-06T14:02:56;13.00;99.90
76211;DHT22;65003;49.518;11.280;2024-03-06T14:05:22;13.30;99.90
76211;DHT22;65003;49.518;11.280;2024-03-06T14:07:52;13.30;99.90
76211;DHT22;65003;49.518;11.280;2024-03-06T14:10:18;13.00;99.90
76211;DHT22;65003;49.518;11.280;2024-03-06T14:12:45;12.30;99.90
76211;DHT22;65003;49.518;11.280;2024-03-06T14:15:11;12.40;99.90
76211;DHT22;65003;49.518;11.280;2024-03-06T14:17:38;12.30;99.90
76211;DHT22;65003;49.518;11.280;2024-03-06T14:20:05;12.30;99.90
76211;DHT22;65003;49.518;11.280;2024-03-06T14:22:31;12.30;99.90
76211;DHT22;65003;49.518;11.280;2024-03-06T14:24:58;12.10;99.90
76211;DHT22;65003;49.518;11.280;2024-03-06T14:27:25;11.80;99.90
76211;DHT22;65003;49.518;11.280;2024-03-06T14:29:51;11.70;99.90
76211;DHT22;65003;49.518;11.280;2024-03-06T14:32:18;11.80;99.90
76211;DHT22;65003;49.518;11.280;2024-03-06T14:34:44;11.70;99.90
76211;DHT22;65003;49.518;11.280;2024-03-06T14:37:11;11.90;99.90
76211;DHT22;65003;49.518;11.280;2024-03-06T14:39:38;12.30;99.90
76211;DHT22;65003;49.518;11.280;2024-03-06T14:42:04;12.00;99.90
76211;DHT22;65003;49.518;11.280;2024-03-06T14:44:31;12.10;99.90
76211;DHT22;65003;49.518;11.280;2024-03-06T14:46:57;11.90;99.90
76211;DHT22;65003;49.518;11.280;2024-03-06T14:49:24;12.20;99.90
76211;DHT22;65003;49.518;11.280;2024-03-06T14:51:51;12.20;99.90
76211;DHT22;65003;49.518;11.280;2024-03-06T14:54:17;12.40;99.90
76211;DHT22;65003;49.518;11.280;2024-03-06T14:56:44;12.50;99.90
76211;DHT22;65003;49.518;11.280;2024-03-06T14:59:10;12.40;99.90
76211;DHT22;65003;49.518;11.280;2024-03-06T15:01:37;12.50;99.90
76211;DHT22;65003;49.518;11.280;2024-03-06T15:04:04;12.50;99.90
76211;DHT22;65003;49.518;11.280;2024-03-06T15:06:30;12.40;99.90
76211;DHT22;65003;49.518;11.280;2024-03-06T15:08:57;12.60;99.90
76211;DHT22;65003;49.518;11.280;2024-03-06T15:11:23;12.30;99.90
76211;DHT22;65003;49.518;11.280;2024-03-06T15:13:50;12.20;99.90
76211;DHT22;65003;49.518;11.280;2024-03-06T15:16:17;11.90;99.90
76211;DHT22;65003;49.518;11.280;2024-03-06T15:18:43;12.00;99.90
76211;DHT22;65003;49.518;11.280;2024-03-06T15:21:10;12.00;99.90
76211;DHT22;65003;49.518;11.280;2024-03-06T15:23:37;11.90;99.90